Time,TemperatureF,DewpointF,PressureIn,WindDirection,WindDirectionDegrees,WindSpeedMPH,WindSpeedGustMPH,Humidity,HourlyPrecipIn,Conditions,Clouds,dailyrainin,SoftwareType,DateUTC
2013-01-02 00:00:00,30.2,25.7,30.02,NW,316,6.0,6.0,83,0.00,,---,0.10,VWS V14.01,2013-01-02 05:00:00,
2013-01-02 00:01:00,30.2,25.7,30.02,North,350,5.0,8.0,83,0.00,,---,0.00,VWS V14.01,2013-01-02 05:01:00,
2013-01-02 00:06:00,30.2,25.4,30.02,NW,320,3.0,5.0,82,0.00,,---,0.00,VWS V14.01,2013-01-02 05:06:00,
2013-01-02 00:11:00,30.2,25.7,30.03,North,360,5.0,6.0,83,0.00,,---,0.00,VWS V14.01,2013-01-02 05:11:00,
2013-01-02 00:16:00,30.2,25.7,30.03,NW,309,3.0,4.0,83,0.00,,---,0.00,VWS V14.01,2013-01-02 05:16:00,
2013-01-02 00:21:00,30.1,25.6,30.04,NW,304,1.0,2.0,83,0.00,,---,0.00,VWS V14.01,2013-01-02 05:21:00,
2013-01-02 00:27:00,30.0,25.5,30.03,NW,317,3.0,4.0,83,0.00,,---,0.00,VWS V14.01,2013-01-02 05:27:00,
2013-01-02 00:32:00,29.9,25.4,30.03,NW,316,2.0,2.0,83,0.00,,---,0.00,VWS V14.01,2013-01-02 05:32:00,
2013-01-02 00:36:00,29.8,25.3,30.03,WNW,297,4.0,4.0,83,0.00,,---,0.00,VWS V14.01,2013-01-02 05:36:00,
2013-01-02 00:41:00,29.7,25.5,30.03,North,355,7.0,7.0,84,0.00,,---,0.00,VWS V14.01,2013-01-02 05:41:00,
2013-01-02 00:46:00,29.7,25.2,30.03,WNW,299,4.0,4.0,83,0.00,,---,0.00,VWS V14.01,2013-01-02 05:46:00,
2013-01-02 00:51:00,29.6,25.4,30.02,NW,307,2.0,4.0,84,0.00,,---,0.00,VWS V14.01,2013-01-02 05:51:00,
2013-01-02 00:56:00,29.4,25.2,30.03,NNW,343,5.0,5.0,84,0.00,,---,0.00,VWS V14.01,2013-01-02 05:56:00,
2013-01-02 01:01:00,29.3,24.8,30.02,NNW,346,5.0,6.0,83,0.00,,---,0.00,VWS V14.01,2013-01-02 06:01:00,
2013-01-02 01:06:00,29.2,24.7,30.03,WNW,288,4.0,4.0,83,0.00,,---,0.00,VWS V14.01,2013-01-02 06:06:00,
2013-01-02 01:11:00,29.1,24.9,30.03,NW,309,2.0,4.0,84,0.00,,---,0.00,VWS V14.01,2013-01-02 06:11:00,
2013-01-02 01:16:00,29.1,24.6,30.02,WNW,303,5.0,6.0,83,0.00,,---,0.00,VWS V14.01,2013-01-02 06:16:00,
2013-01-02 01:21:00,29.0,24.8,30.01,NW,316,2.0,2.0,84,0.00,,---,0.00,VWS V14.01,2013-01-02 06:21:00,
2013-01-02 01:26:00,29.0,24.5,30.03,WNW,292,1.0,1.0,83,0.00,,---,0.00,VWS V14.01,2013-01-02 06:26:00,
2013-01-02 01:31:00,29.0,24.5,30.03,NW,316,5.0,6.0,83,0.00,,---,0.00,VWS V14.01,2013-01-02 06:31:00,
2013-01-02 01:37:00,29.0,24.5,30.03,West,273,6.0,8.0,83,0.00,,---,0.00,VWS V14.01,2013-01-02 06:37:00,
2013-01-02 01:41:00,29.1,24.3,30.03,NW,309,2.0,3.0,82,0.00,,---,0.00,VWS V14.01,2013-01-02 06:41:00,
2013-01-02 01:46:00,29.1,24.3,30.03,NW,325,3.0,3.0,82,0.00,,---,0.00,VWS V14.01,2013-01-02 06:46:00,
2013-01-02 01:51:00,29.0,24.2,30.03,WNW,296,4.0,4.0,82,0.00,,---,0.00,VWS V14.01,2013-01-02 06:51:00,
2013-01-02 01:56:00,29.0,24.2,30.03,NNW,333,4.0,4.0,82,0.00,,---,0.00,VWS V14.01,2013-01-02 06:56:00,
2013-01-02 02:01:00,29.0,24.2,30.03,WNW,294,2.0,2.0,82,0.00,,---,0.00,VWS V14.01,2013-01-02 07:01:00,
2013-01-02 02:06:00,29.0,24.2,30.03,NNW,348,4.0,4.0,82,0.00,,---,0.00,VWS V14.01,2013-01-02 07:06:00,
2013-01-02 02:11:00,29.0,24.2,30.03,NW,304,1.0,2.0,82,0.00,,---,0.00,VWS V14.01,2013-01-02 07:11:00,
2013-01-02 02:16:00,29.0,24.2,30.04,NW,312,6.0,6.0,82,0.00,,---,0.00,VWS V14.01,2013-01-02 07:16:00,
2013-01-02 02:21:00,29.0,24.5,30.03,NW,313,1.0,2.0,83,0.00,,---,0.00,VWS V14.01,2013-01-02 07:21:00,
2013-01-02 02:26:00,29.0,24.2,30.04,NW,311,3.0,3.0,82,0.00,,---,0.00,VWS V14.01,2013-01-02 07:26:00,
2013-01-02 02:31:00,29.0,24.2,30.04,NNW,334,1.0,2.0,82,0.00,,---,0.00,VWS V14.01,2013-01-02 07:31:00,
2013-01-02 02:36:00,29.0,24.5,30.04,WNW,300,5.0,5.0,83,0.00,,---,0.00,VWS V14.01,2013-01-02 07:36:00,
2013-01-02 02:41:00,29.0,24.5,30.04,NW,314,1.0,2.0,83,0.00,,---,0.00,VWS V14.01,2013-01-02 07:41:00,
2013-01-02 02:46:00,29.0,24.8,30.04,NW,317,1.0,1.0,84,0.00,,---,0.00,VWS V14.01,2013-01-02 07:46:00,
2013-01-02 02:51:00,28.9,24.4,30.03,West,281,4.0,4.0,83,0.00,,---,0.00,VWS V14.01,2013-01-02 07:51:00,
2013-01-02 02:56:00,28.9,24.7,30.04,NW,309,1.0,2.0,84,0.00,,---,0.00,VWS V14.01,2013-01-02 07:56:00,
2013-01-02 03:01:00,28.8,24.6,30.05,NNW,332,3.0,3.0,84,0.00,,---,0.00,VWS V14.01,2013-01-02 08:01:00,
2013-01-02 03:06:00,28.8,24.6,30.04,NNW,344,2.0,3.0,84,0.00,,---,0.00,VWS V14.01,2013-01-02 08:06:00,
2013-01-02 03:11:00,28.8,24.6,30.04,WNW,285,5.0,5.0,84,0.00,,---,0.00,VWS V14.01,2013-01-02 08:11:00,
2013-01-02 03:16:00,28.8,24.6,30.03,NW,316,3.0,4.0,84,0.00,,---,0.00,VWS V14.01,2013-01-02 08:16:00,
2013-01-02 03:21:00,28.7,24.8,30.04,NNW,331,2.0,2.0,85,0.00,,---,0.00,VWS V14.01,2013-01-02 08:21:00,
2013-01-02 03:26:00,28.7,24.8,30.04,NNW,331,5.0,6.0,85,0.00,,---,0.00,VWS V14.01,2013-01-02 08:26:00,
2013-01-02 03:31:00,28.6,24.7,30.04,NW,326,4.0,4.0,85,0.00,,---,0.00,VWS V14.01,2013-01-02 08:31:00,
2013-01-02 03:36:00,28.6,24.7,30.04,WNW,300,5.0,5.0,85,0.00,,---,0.00,VWS V14.01,2013-01-02 08:36:00,
2013-01-02 03:41:00,28.5,24.6,30.04,NW,317,2.0,2.0,85,0.00,,---,0.00,VWS V14.01,2013-01-02 08:41:00,
2013-01-02 03:46:00,28.5,24.6,30.05,NNW,331,4.0,4.0,85,0.00,,---,0.00,VWS V14.01,2013-01-02 08:46:00,
2013-01-02 03:51:00,28.3,24.1,30.06,WNW,298,6.0,6.0,84,0.00,,---,0.00,VWS V14.01,2013-01-02 08:51:00,
2013-01-02 03:56:00,28.1,23.6,30.05,NNW,333,10.0,11.0,83,0.00,,---,0.00,VWS V14.01,2013-01-02 08:56:00,
2013-01-02 04:01:00,27.9,23.4,30.05,NW,323,4.0,5.0,83,0.00,,---,0.00,VWS V14.01,2013-01-02 09:01:00,
2013-01-02 04:06:00,27.7,23.2,30.04,NW,321,4.0,5.0,83,0.00,,---,0.00,VWS V14.01,2013-01-02 09:06:00,
2013-01-02 04:11:00,27.5,23.0,30.05,NW,313,4.0,6.0,83,0.00,,---,0.00,VWS V14.01,2013-01-02 09:11:00,
2013-01-02 04:16:00,27.3,22.8,30.05,NW,306,5.0,5.0,83,0.00,,---,0.00,VWS V14.01,2013-01-02 09:16:00,
2013-01-02 04:21:00,27.2,22.7,30.05,WNW,288,2.0,2.0,83,0.00,,---,0.00,VWS V14.01,2013-01-02 09:21:00,
2013-01-02 04:26:00,27.1,22.6,30.05,WNW,294,5.0,5.0,83,0.00,,---,0.00,VWS V14.01,2013-01-02 09:26:00,
2013-01-02 04:31:00,27.0,22.8,30.06,WNW,282,3.0,3.0,84,0.00,,---,0.00,VWS V14.01,2013-01-02 09:31:00,
2013-01-02 04:36:00,26.9,22.7,30.05,NW,319,6.0,7.0,84,0.00,,---,0.00,VWS V14.01,2013-01-02 09:36:00,
2013-01-02 04:41:00,26.7,22.5,30.05,NW,313,3.0,3.0,84,0.00,,---,0.00,VWS V14.01,2013-01-02 09:41:00,
2013-01-02 04:46:00,26.6,22.4,30.05,NW,308,4.0,4.0,84,0.00,,---,0.00,VWS V14.01,2013-01-02 09:46:00,
2013-01-02 04:51:00,26.6,22.4,30.05,West,279,6.0,6.0,84,0.00,,---,0.00,VWS V14.01,2013-01-02 09:51:00,
2013-01-02 04:56:00,26.5,22.3,30.05,North,349,3.0,5.0,84,0.00,,---,0.00,VWS V14.01,2013-01-02 09:56:00,
2013-01-02 05:01:00,26.5,22.3,30.05,NW,324,3.0,4.0,84,0.00,,---,0.00,VWS V14.01,2013-01-02 10:01:00,
2013-01-02 05:06:00,26.4,22.2,30.06,NW,325,4.0,7.0,84,0.00,,---,0.00,VWS V14.01,2013-01-02 10:06:00,
2013-01-02 05:11:00,26.2,22.0,30.06,NW,318,4.0,5.0,84,0.00,,---,0.00,VWS V14.01,2013-01-02 10:11:00,
2013-01-02 05:16:00,26.1,21.9,30.06,WNW,292,6.0,6.0,84,0.00,,---,0.00,VWS V14.01,2013-01-02 10:16:00,
2013-01-02 05:21:00,26.0,22.1,30.06,NW,311,4.0,8.0,85,0.00,,---,0.00,VWS V14.01,2013-01-02 10:21:00,
2013-01-02 05:26:00,25.8,21.9,30.06,WNW,302,7.0,7.0,85,0.00,,---,0.00,VWS V14.01,2013-01-02 10:26:00,
2013-01-02 05:31:00,25.7,21.8,30.07,NW,321,5.0,7.0,85,0.00,,---,0.00,VWS V14.01,2013-01-02 10:31:00,
2013-01-02 05:36:00,25.6,21.7,30.06,NW,312,3.0,8.0,85,0.00,,---,0.00,VWS V14.01,2013-01-02 10:36:00,
2013-01-02 05:41:00,25.6,21.7,30.07,WNW,300,5.0,6.0,85,0.00,,---,0.00,VWS V14.01,2013-01-02 10:41:00,
2013-01-02 05:46:00,25.5,21.6,30.07,NW,310,5.0,5.0,85,0.00,,---,0.00,VWS V14.01,2013-01-02 10:46:00,
2013-01-02 05:51:00,25.4,21.5,30.07,NNW,339,4.0,6.0,85,0.00,,---,0.00,VWS V14.01,2013-01-02 10:51:00,
2013-01-02 05:56:00,25.4,21.2,30.07,WNW,302,7.0,10.0,84,0.00,,---,0.00,VWS V14.01,2013-01-02 10:56:00,
2013-01-02 06:01:00,25.5,21.4,30.08,NW,307,5.0,6.0,84,0.00,,---,0.00,VWS V14.01,2013-01-02 11:01:00,
2013-01-02 06:06:00,25.5,21.4,30.08,NW,309,4.0,4.0,84,0.00,,---,0.00,VWS V14.01,2013-01-02 11:06:00,
2013-01-02 06:11:00,25.5,21.4,30.08,North,360,3.0,7.0,84,0.00,,---,0.00,VWS V14.01,2013-01-02 11:11:00,
2013-01-02 06:16:00,25.5,21.4,30.08,NNW,329,4.0,6.0,84,0.00,,---,0.00,VWS V14.01,2013-01-02 11:16:00,
2013-01-02 06:21:00,25.4,21.2,30.08,NW,311,4.0,4.0,84,0.00,,---,0.00,VWS V14.01,2013-01-02 11:21:00,
2013-01-02 06:26:00,25.3,21.1,30.08,NNW,346,6.0,8.0,84,0.00,,---,0.00,VWS V14.01,2013-01-02 11:26:00,
2013-01-02 06:31:00,25.2,21.3,30.09,NW,319,6.0,6.0,85,0.00,,---,0.00,VWS V14.01,2013-01-02 11:31:00,
2013-01-02 06:36:00,25.1,21.2,30.09,WNW,301,6.0,7.0,85,0.00,,---,0.00,VWS V14.01,2013-01-02 11:36:00,
2013-01-02 06:41:00,24.9,21.0,30.09,NNW,343,5.0,6.0,85,0.00,,---,0.00,VWS V14.01,2013-01-02 11:41:00,
2013-01-02 06:46:00,24.8,21.2,30.10,WNW,303,4.0,7.0,86,0.00,,---,0.00,VWS V14.01,2013-01-02 11:46:00,
2013-01-02 06:51:00,24.7,21.1,30.10,NW,323,4.0,5.0,86,0.00,,---,0.00,VWS V14.01,2013-01-02 11:51:00,
2013-01-02 06:56:00,24.6,21.3,30.10,WNW,300,3.0,4.0,87,0.00,,---,0.00,VWS V14.01,2013-01-02 11:56:00,
2013-01-02 07:01:00,24.5,21.5,30.10,WNW,298,3.0,5.0,88,0.00,,---,0.00,VWS V14.01,2013-01-02 12:01:00,
2013-01-02 07:06:00,24.3,21.5,30.11,WNW,295,3.0,5.0,89,0.00,,---,0.00,VWS V14.01,2013-01-02 12:06:00,
2013-01-02 07:11:00,24.1,21.1,30.11,NW,322,2.0,5.0,88,0.00,,---,0.00,VWS V14.01,2013-01-02 12:11:00,
2013-01-02 07:16:00,24.0,21.0,30.11,WNW,302,5.0,5.0,88,0.00,,---,0.00,VWS V14.01,2013-01-02 12:16:00,
2013-01-02 07:21:00,23.9,20.9,30.12,NNW,328,4.0,6.0,88,0.00,,---,0.00,VWS V14.01,2013-01-02 12:21:00,
2013-01-02 07:26:00,23.8,20.8,30.12,NNW,330,3.0,4.0,88,0.00,,---,0.00,VWS V14.01,2013-01-02 12:26:00,
2013-01-02 07:31:00,23.9,20.6,30.12,NW,305,4.0,6.0,87,0.00,,---,0.00,VWS V14.01,2013-01-02 12:31:00,
2013-01-02 07:36:00,23.9,20.6,30.12,NNW,339,8.0,8.0,87,0.00,,---,0.00,VWS V14.01,2013-01-02 12:36:00,
2013-01-02 07:41:00,23.8,20.5,30.12,WNW,294,3.0,4.0,87,0.00,,---,0.00,VWS V14.01,2013-01-02 12:41:00,
2013-01-02 07:46:00,23.7,20.1,30.13,NW,304,3.0,7.0,86,0.00,,---,0.00,VWS V14.01,2013-01-02 12:46:00,
2013-01-02 07:51:00,23.7,20.1,30.13,NNW,333,9.0,9.0,86,0.00,,---,0.00,VWS V14.01,2013-01-02 12:51:00,
2013-01-02 07:56:00,23.7,20.1,30.13,NW,306,2.0,5.0,86,0.00,,---,0.00,VWS V14.01,2013-01-02 12:56:00,
2013-01-02 08:01:00,23.5,19.7,30.12,WNW,292,4.0,5.0,85,0.00,,---,0.00,VWS V14.01,2013-01-02 13:01:00,
2013-01-02 08:06:00,23.6,19.5,30.12,NNW,331,7.0,8.0,84,0.00,,---,0.00,VWS V14.01,2013-01-02 13:06:00,
2013-01-02 08:11:00,23.6,19.5,30.12,WNW,303,4.0,7.0,84,0.00,,---,0.00,VWS V14.01,2013-01-02 13:11:00,
2013-01-02 08:16:00,23.6,19.2,30.13,NW,319,2.0,8.0,83,0.00,,---,0.00,VWS V14.01,2013-01-02 13:16:00,
2013-01-02 08:21:00,23.6,19.2,30.13,NNW,333,9.0,9.0,83,0.00,,---,0.00,VWS V14.01,2013-01-02 13:21:00,
2013-01-02 08:26:00,23.6,19.5,30.13,NW,324,4.0,5.0,84,0.00,,---,0.00,VWS V14.01,2013-01-02 13:26:00,
2013-01-02 08:31:00,23.6,18.9,30.13,WNW,303,4.0,6.0,82,0.00,,---,0.00,VWS V14.01,2013-01-02 13:31:00,
2013-01-02 08:36:00,23.6,18.9,30.13,NNW,346,4.0,7.0,82,0.00,,---,0.00,VWS V14.01,2013-01-02 13:36:00,
2013-01-02 08:41:00,23.6,18.9,30.14,NW,304,4.0,9.0,82,0.00,,---,0.00,VWS V14.01,2013-01-02 13:41:00,
2013-01-02 08:46:00,23.7,19.0,30.14,NNW,342,5.0,7.0,82,0.00,,---,0.00,VWS V14.01,2013-01-02 13:46:00,
2013-01-02 08:51:00,23.9,19.2,30.14,NNW,327,9.0,11.0,82,0.00,,---,0.00,VWS V14.01,2013-01-02 13:51:00,
2013-01-02 08:56:00,24.2,19.2,30.15,NW,315,5.0,8.0,81,0.00,,---,0.00,VWS V14.01,2013-01-02 13:56:00,
2013-01-02 09:01:00,24.2,18.9,30.15,North,360,0.0,7.0,80,0.00,,---,0.00,VWS V14.01,2013-01-02 14:01:00,
2013-01-02 09:06:00,24.0,19.0,30.16,West,264,7.0,7.0,81,0.00,,---,0.00,VWS V14.01,2013-01-02 14:06:00,
2013-01-02 09:11:00,24.0,19.0,30.16,West,265,4.0,9.0,81,0.00,,---,0.00,VWS V14.01,2013-01-02 14:11:00,
2013-01-02 09:16:00,24.0,19.0,30.15,WNW,293,4.0,7.0,81,0.00,,---,0.00,VWS V14.01,2013-01-02 14:16:00,
2013-01-02 09:21:00,24.1,19.1,30.16,NW,304,3.0,7.0,81,0.00,,---,0.00,VWS V14.01,2013-01-02 14:21:00,
2013-01-02 09:26:00,24.3,18.7,30.16,North,5,7.0,10.0,79,0.00,,---,0.00,VWS V14.01,2013-01-02 14:26:00,
2013-01-02 09:31:00,24.9,19.3,30.16,West,273,9.0,11.0,79,0.00,,---,0.00,VWS V14.01,2013-01-02 14:31:00,
2013-01-02 09:36:00,25.5,19.0,30.17,NNW,334,6.0,10.0,76,0.00,,---,0.00,VWS V14.01,2013-01-02 14:36:00,
2013-01-02 09:41:00,25.9,19.4,30.18,WNW,300,4.0,9.0,76,0.00,,---,0.00,VWS V14.01,2013-01-02 14:41:00,
2013-01-02 09:46:00,26.2,19.4,30.17,NW,313,4.0,11.0,75,0.00,,---,0.00,VWS V14.01,2013-01-02 14:46:00,
2013-01-02 09:51:00,25.8,18.7,30.18,WNW,300,5.0,5.0,74,0.00,,---,0.00,VWS V14.01,2013-01-02 14:51:00,
2013-01-02 09:56:00,25.7,18.6,30.18,WNW,283,8.0,10.0,74,0.00,,---,0.00,VWS V14.01,2013-01-02 14:56:00,
2013-01-02 10:01:00,25.4,18.9,30.18,West,277,5.0,7.0,76,0.00,,---,0.00,VWS V14.01,2013-01-02 15:01:00,
2013-01-02 10:06:00,25.3,18.8,30.18,NNW,337,2.0,8.0,76,0.00,,---,0.00,VWS V14.01,2013-01-02 15:06:00,
2013-01-02 10:11:00,25.1,18.6,30.18,WNW,303,1.0,5.0,76,0.00,,---,0.00,VWS V14.01,2013-01-02 15:11:00,
2013-01-02 10:16:00,25.1,18.6,30.17,NNW,333,7.0,8.0,76,0.00,,---,0.00,VWS V14.01,2013-01-02 15:16:00,
2013-01-02 10:21:00,25.2,19.0,30.17,NW,321,5.0,8.0,77,0.00,,---,0.00,VWS V14.01,2013-01-02 15:21:00,
2013-01-02 10:26:00,25.3,19.1,30.17,NNW,327,8.0,9.0,77,0.00,,---,0.00,VWS V14.01,2013-01-02 15:26:00,
2013-01-02 10:31:00,25.7,19.8,30.17,WNW,302,6.0,9.0,78,0.00,,---,0.00,VWS V14.01,2013-01-02 15:31:00,
2013-01-02 10:36:00,26.2,20.3,30.17,NW,324,8.0,11.0,78,0.00,,---,0.00,VWS V14.01,2013-01-02 15:36:00,
2013-01-02 10:41:00,26.6,20.7,30.17,NNW,342,9.0,13.0,78,0.00,,---,0.00,VWS V14.01,2013-01-02 15:41:00,
2013-01-02 10:46:00,26.3,20.1,30.17,NNW,334,4.0,6.0,77,0.00,,---,0.00,VWS V14.01,2013-01-02 15:46:00,
2013-01-02 10:51:00,26.1,19.9,30.17,North,351,8.0,10.0,77,0.00,,---,0.00,VWS V14.01,2013-01-02 15:51:00,
2013-01-02 10:56:00,25.6,19.4,30.17,NNW,332,6.0,10.0,77,0.00,,---,0.00,VWS V14.01,2013-01-02 15:56:00,
2013-01-02 11:01:00,25.2,19.0,30.17,NW,309,7.0,11.0,77,0.00,,---,0.00,VWS V14.01,2013-01-02 16:01:00,
2013-01-02 11:06:00,24.9,18.7,30.17,NW,307,9.0,9.0,77,0.00,,---,0.00,VWS V14.01,2013-01-02 16:06:00,
2013-01-02 11:11:00,24.9,19.0,30.17,WNW,289,5.0,5.0,78,0.00,,---,0.00,VWS V14.01,2013-01-02 16:11:00,
2013-01-02 11:16:00,25.2,19.3,30.17,WNW,298,6.0,10.0,78,0.00,,---,0.00,VWS V14.01,2013-01-02 16:16:00,
2013-01-02 11:21:00,25.4,18.9,30.17,NW,317,3.0,7.0,76,0.00,,---,0.00,VWS V14.01,2013-01-02 16:21:00,
2013-01-02 11:26:00,25.7,18.9,30.17,NW,309,2.0,5.0,75,0.00,,---,0.00,VWS V14.01,2013-01-02 16:26:00,
2013-01-02 11:31:00,25.7,18.6,30.17,WNW,294,4.0,6.0,74,0.00,,---,0.00,VWS V14.01,2013-01-02 16:31:00,
2013-01-02 11:36:00,25.8,18.4,30.17,NW,318,5.0,6.0,73,0.00,,---,0.00,VWS V14.01,2013-01-02 16:36:00,
2013-01-02 11:41:00,26.2,18.7,30.17,West,260,5.0,5.0,73,0.00,,---,0.00,VWS V14.01,2013-01-02 16:41:00,
2013-01-02 11:46:00,26.3,18.5,30.17,WNW,303,4.0,10.0,72,0.00,,---,0.00,VWS V14.01,2013-01-02 16:46:00,
2013-01-02 11:51:00,26.6,18.8,30.16,NW,320,7.0,7.0,72,0.00,,---,0.00,VWS V14.01,2013-01-02 16:51:00,
2013-01-02 11:56:00,26.9,18.8,30.15,NW,313,6.0,8.0,71,0.00,,---,0.00,VWS V14.01,2013-01-02 16:56:00,
2013-01-02 12:01:00,27.0,18.2,30.15,NW,317,7.0,9.0,69,0.00,,---,0.00,VWS V14.01,2013-01-02 17:01:00,
2013-01-02 12:06:00,27.0,18.9,30.16,North,355,6.0,10.0,71,0.00,,---,0.00,VWS V14.01,2013-01-02 17:06:00,
2013-01-02 12:11:00,26.9,18.4,30.15,West,281,7.0,8.0,70,0.00,,---,0.00,VWS V14.01,2013-01-02 17:11:00,
2013-01-02 12:16:00,27.4,18.9,30.15,WNW,302,5.0,8.0,70,0.00,,---,0.00,VWS V14.01,2013-01-02 17:16:00,
2013-01-02 12:21:00,27.4,18.2,30.15,NNW,344,7.0,13.0,68,0.00,,---,0.00,VWS V14.01,2013-01-02 17:21:00,
2013-01-02 12:26:00,26.8,18.0,30.15,WNW,296,7.0,19.0,69,0.00,,---,0.00,VWS V14.01,2013-01-02 17:26:00,
2013-01-02 12:31:00,26.8,18.3,30.15,WNW,290,9.0,9.0,70,0.00,,---,0.00,VWS V14.01,2013-01-02 17:31:00,
2013-01-02 12:36:00,26.8,18.3,30.15,West,276,9.0,14.0,70,0.00,,---,0.00,VWS V14.01,2013-01-02 17:36:00,
2013-01-02 12:41:00,27.0,18.2,30.15,NW,306,7.0,9.0,69,0.00,,---,0.00,VWS V14.01,2013-01-02 17:41:00,
2013-01-02 12:46:00,27.1,18.6,30.14,NW,309,9.0,9.0,70,0.00,,---,0.00,VWS V14.01,2013-01-02 17:46:00,
2013-01-02 12:51:00,27.4,18.6,30.14,WNW,283,7.0,7.0,69,0.00,,---,0.00,VWS V14.01,2013-01-02 17:51:00,
2013-01-02 12:56:00,27.6,18.4,30.14,WNW,303,6.0,16.0,68,0.00,,---,0.00,VWS V14.01,2013-01-02 17:56:00,
2013-01-02 13:01:00,27.5,18.3,30.14,WNW,297,10.0,10.0,68,0.00,,---,0.00,VWS V14.01,2013-01-02 18:01:00,
2013-01-02 13:06:00,27.2,17.7,30.14,West,280,5.0,9.0,67,0.00,,---,0.00,VWS V14.01,2013-01-02 18:06:00,
2013-01-02 13:11:00,27.0,17.9,30.14,WNW,293,7.0,8.0,68,0.00,,---,0.00,VWS V14.01,2013-01-02 18:11:00,
2013-01-02 13:16:00,27.0,17.9,30.14,NW,312,8.0,10.0,68,0.00,,---,0.00,VWS V14.01,2013-01-02 18:16:00,
2013-01-02 13:21:00,27.2,18.0,30.14,NW,321,7.0,9.0,68,0.00,,---,0.00,VWS V14.01,2013-01-02 18:21:00,
2013-01-02 13:26:00,27.6,18.4,30.14,West,273,4.0,8.0,68,0.00,,---,0.00,VWS V14.01,2013-01-02 18:26:00,
2013-01-02 13:31:00,28.0,18.8,30.14,West,262,5.0,6.0,68,0.00,,---,0.00,VWS V14.01,2013-01-02 18:31:00,
2013-01-02 13:36:00,28.4,18.9,30.14,WNW,298,6.0,6.0,67,0.00,,---,0.00,VWS V14.01,2013-01-02 18:36:00,
2013-01-02 13:41:00,28.5,18.6,30.15,WNW,284,4.0,4.0,66,0.00,,---,0.00,VWS V14.01,2013-01-02 18:41:00,
2013-01-02 13:46:00,28.7,19.1,30.14,NW,312,5.0,5.0,67,0.00,,---,0.00,VWS V14.01,2013-01-02 18:46:00,
2013-01-02 13:51:00,28.8,18.5,30.15,West,261,8.0,8.0,65,0.00,,---,0.00,VWS V14.01,2013-01-02 18:51:00,
2013-01-02 13:56:00,28.7,18.1,30.15,West,272,10.0,10.0,64,0.00,,---,0.00,VWS V14.01,2013-01-02 18:56:00,
2013-01-02 14:01:00,28.8,18.5,30.14,West,267,7.0,9.0,65,0.00,,---,0.00,VWS V14.01,2013-01-02 19:01:00,
2013-01-02 14:06:00,29.2,18.9,30.15,NW,313,5.0,6.0,65,0.00,,---,0.00,VWS V14.01,2013-01-02 19:06:00,
2013-01-02 14:11:00,29.4,18.7,30.14,NW,311,3.0,5.0,64,0.00,,---,0.00,VWS V14.01,2013-01-02 19:11:00,
2013-01-02 14:16:00,29.4,17.6,30.14,NNW,333,6.0,6.0,61,0.00,,---,0.00,VWS V14.01,2013-01-02 19:16:00,
2013-01-02 14:21:00,29.2,17.4,30.15,NW,320,3.0,6.0,61,0.00,,---,0.00,VWS V14.01,2013-01-02 19:21:00,
2013-01-02 14:26:00,29.1,17.7,30.14,WNW,291,10.0,10.0,62,0.00,,---,0.00,VWS V14.01,2013-01-02 19:26:00,
2013-01-02 14:31:00,29.2,17.4,30.14,WNW,294,8.0,10.0,61,0.00,,---,0.00,VWS V14.01,2013-01-02 19:31:00,
2013-01-02 14:36:00,29.3,17.9,30.14,WNW,297,5.0,5.0,62,0.00,,---,0.00,VWS V14.01,2013-01-02 19:36:00,
2013-01-02 14:41:00,29.3,17.9,30.15,West,275,4.0,5.0,62,0.00,,---,0.00,VWS V14.01,2013-01-02 19:41:00,
2013-01-02 14:46:00,29.2,17.4,30.15,WNW,296,5.0,7.0,61,0.00,,---,0.00,VWS V14.01,2013-01-02 19:46:00,
2013-01-02 14:51:00,29.0,17.6,30.15,NW,320,6.0,6.0,62,0.00,,---,0.00,VWS V14.01,2013-01-02 19:51:00,
2013-01-02 14:56:00,28.9,17.2,30.15,West,269,5.0,12.0,61,0.00,,---,0.00,VWS V14.01,2013-01-02 19:56:00,
2013-01-02 15:01:00,28.9,17.5,30.16,NW,311,7.0,8.0,62,0.00,,---,0.00,VWS V14.01,2013-01-02 20:01:00,
2013-01-02 15:06:00,28.8,17.1,30.16,North,5,5.0,10.0,61,0.00,,---,0.00,VWS V14.01,2013-01-02 20:06:00,
2013-01-02 15:11:00,28.7,17.3,30.16,North,355,8.0,9.0,62,0.00,,---,0.00,VWS V14.01,2013-01-02 20:11:00,
2013-01-02 15:16:00,28.7,18.1,30.17,NW,315,5.0,6.0,64,0.00,,---,0.00,VWS V14.01,2013-01-02 20:16:00,
2013-01-02 15:21:00,29.0,18.4,30.16,WNW,296,6.0,6.0,64,0.00,,---,0.00,VWS V14.01,2013-01-02 20:21:00,
2013-01-02 15:26:00,29.1,18.5,30.16,NNW,331,4.0,6.0,64,0.00,,---,0.00,VWS V14.01,2013-01-02 20:26:00,
2013-01-02 15:31:00,29.2,17.4,30.16,West,269,4.0,7.0,61,0.00,,---,0.00,VWS V14.01,2013-01-02 20:31:00,
2013-01-02 15:36:00,29.0,17.6,30.16,NNW,330,5.0,7.0,62,0.00,,---,0.00,VWS V14.01,2013-01-02 20:36:00,
2013-01-02 15:41:00,28.8,17.4,30.16,NNW,333,8.0,10.0,62,0.00,,---,0.00,VWS V14.01,2013-01-02 20:41:00,
2013-01-02 15:46:00,28.6,17.2,30.16,NW,309,4.0,5.0,62,0.00,,---,0.00,VWS V14.01,2013-01-02 20:46:00,
2013-01-02 15:51:00,28.6,17.6,30.16,WNW,294,5.0,10.0,63,0.00,,---,0.00,VWS V14.01,2013-01-02 20:51:00,
2013-01-02 15:56:00,28.6,18.0,30.16,NW,323,5.0,13.0,64,0.00,,---,0.00,VWS V14.01,2013-01-02 20:56:00,
2013-01-02 16:01:00,28.4,17.4,30.16,WNW,285,7.0,7.0,63,0.00,,---,0.00,VWS V14.01,2013-01-02 21:01:00,
2013-01-02 16:06:00,28.2,16.9,30.16,WNW,296,5.0,6.0,62,0.00,,---,0.00,VWS V14.01,2013-01-02 21:06:00,
2013-01-02 16:11:00,28.1,17.1,30.17,NW,322,3.0,4.0,63,0.00,,---,0.00,VWS V14.01,2013-01-02 21:11:00,
2013-01-02 16:16:00,27.9,17.0,30.16,WNW,284,3.0,9.0,63,0.00,,---,0.00,VWS V14.01,2013-01-02 21:16:00,
2013-01-02 16:21:00,27.8,17.2,30.16,West,278,4.0,7.0,64,0.00,,---,0.00,VWS V14.01,2013-01-02 21:21:00,
2013-01-02 16:26:00,27.6,17.0,30.16,NW,318,4.0,4.0,64,0.00,,---,0.00,VWS V14.01,2013-01-02 21:26:00,
2013-01-02 16:31:00,27.6,17.4,30.17,WNW,303,2.0,4.0,65,0.00,,---,0.00,VWS V14.01,2013-01-02 21:31:00,
2013-01-02 16:36:00,27.4,17.5,30.17,West,267,7.0,7.0,66,0.00,,---,0.00,VWS V14.01,2013-01-02 21:36:00,
2013-01-02 16:41:00,27.3,17.5,30.17,WNW,292,2.0,4.0,66,0.00,,---,0.00,VWS V14.01,2013-01-02 21:41:00,
2013-01-02 16:46:00,27.1,17.3,30.17,NW,304,5.0,9.0,66,0.00,,---,0.00,VWS V14.01,2013-01-02 21:46:00,
2013-01-02 16:51:00,26.9,17.1,30.17,NNW,333,2.0,3.0,66,0.00,,---,0.00,VWS V14.01,2013-01-02 21:51:00,
2013-01-02 16:56:00,26.7,16.9,30.17,NW,323,2.0,2.0,66,0.00,,---,0.00,VWS V14.01,2013-01-02 21:56:00,
2013-01-02 17:01:00,26.5,17.0,30.17,NW,317,4.0,4.0,67,0.00,,---,0.00,VWS V14.01,2013-01-02 22:01:00,
2013-01-02 17:06:00,26.3,16.9,30.17,NW,322,2.0,4.0,67,0.00,,---,0.00,VWS V14.01,2013-01-02 22:06:00,
2013-01-02 17:11:00,26.2,17.1,30.18,West,281,2.0,2.0,68,0.00,,---,0.00,VWS V14.01,2013-01-02 22:11:00,
2013-01-02 17:16:00,26.1,17.0,30.18,NW,311,2.0,3.0,68,0.00,,---,0.00,VWS V14.01,2013-01-02 22:16:00,
2013-01-02 17:21:00,26.0,16.9,30.18,NW,304,4.0,4.0,68,0.00,,---,0.00,VWS V14.01,2013-01-02 22:21:00,
2013-01-02 17:26:00,25.8,16.7,30.18,NW,312,0.0,1.0,68,0.00,,---,0.00,VWS V14.01,2013-01-02 22:26:00,
2013-01-02 17:31:00,25.6,16.9,30.19,NW,312,0.0,1.0,69,0.00,,---,0.00,VWS V14.01,2013-01-02 22:31:00,
2013-01-02 17:36:00,25.4,16.7,30.19,WNW,294,1.0,1.0,69,0.00,,---,0.00,VWS V14.01,2013-01-02 22:36:00,
2013-01-02 17:41:00,25.4,16.7,30.19,WNW,300,2.0,3.0,69,0.00,,---,0.00,VWS V14.01,2013-01-02 22:41:00,
2013-01-02 17:46:00,25.3,16.6,30.19,NW,304,2.0,3.0,69,0.00,,---,0.00,VWS V14.01,2013-01-02 22:46:00,
2013-01-02 17:51:00,25.2,16.5,30.19,NW,309,3.0,5.0,69,0.00,,---,0.00,VWS V14.01,2013-01-02 22:51:00,
2013-01-02 17:56:00,25.1,16.7,30.19,NNW,333,4.0,4.0,70,0.00,,---,0.00,VWS V14.01,2013-01-02 22:56:00,
2013-01-02 18:01:00,25.1,16.7,30.20,NNW,348,5.0,5.0,70,0.00,,---,0.00,VWS V14.01,2013-01-02 23:01:00,
2013-01-02 18:06:00,25.3,16.9,30.21,NW,321,0.0,1.0,70,0.00,,---,0.00,VWS V14.01,2013-01-02 23:06:00,
2013-01-02 18:11:00,25.1,16.7,30.21,NNW,331,1.0,2.0,70,0.00,,---,0.00,VWS V14.01,2013-01-02 23:11:00,
2013-01-02 18:16:00,24.9,16.8,30.21,NNW,331,0.0,1.0,71,0.00,,---,0.00,VWS V14.01,2013-01-02 23:16:00,
2013-01-02 18:21:00,24.7,16.6,30.20,NNW,331,0.0,1.0,71,0.00,,---,0.00,VWS V14.01,2013-01-02 23:21:00,
2013-01-02 18:26:00,24.5,16.5,30.21,NNW,331,0.0,1.0,71,0.00,,---,0.00,VWS V14.01,2013-01-02 23:26:00,
2013-01-02 18:31:00,24.5,16.8,30.21,NNW,342,0.0,1.0,72,0.00,,---,0.00,VWS V14.01,2013-01-02 23:31:00,
2013-01-02 18:36:00,24.4,16.7,30.21,NW,314,3.0,3.0,72,0.00,,---,0.00,VWS V14.01,2013-01-02 23:36:00,
2013-01-02 18:41:00,24.4,16.7,30.21,NW,314,2.0,3.0,72,0.00,,---,0.00,VWS V14.01,2013-01-02 23:41:00,
2013-01-02 18:46:00,24.3,16.9,30.21,NW,314,3.0,3.0,73,0.00,,---,0.00,VWS V14.01,2013-01-02 23:46:00,
2013-01-02 18:51:00,24.2,16.8,30.21,WNW,299,2.0,2.0,73,0.00,,---,0.00,VWS V14.01,2013-01-02 23:51:00,
2013-01-02 18:56:00,24.0,16.9,30.21,NNW,344,2.0,3.0,74,0.00,,---,0.00,VWS V14.01,2013-01-02 23:56:00,
2013-01-02 19:01:00,24.0,16.9,30.21,NNW,338,3.0,4.0,74,0.00,,---,0.00,VWS V14.01,2013-01-03 00:01:00,
2013-01-02 19:06:00,24.0,17.2,30.20,NNW,327,2.0,3.0,75,0.00,,---,0.00,VWS V14.01,2013-01-03 00:06:00,
2013-01-02 19:11:00,24.0,17.2,30.21,NW,317,2.0,4.0,75,0.00,,---,0.00,VWS V14.01,2013-01-03 00:11:00,
2013-01-02 19:16:00,24.0,17.2,30.21,NW,309,1.0,2.0,75,0.00,,---,0.00,VWS V14.01,2013-01-03 00:16:00,
2013-01-02 19:21:00,24.0,17.2,30.21,NW,309,3.0,3.0,75,0.00,,---,0.00,VWS V14.01,2013-01-03 00:21:00,
2013-01-02 19:26:00,23.9,17.1,30.21,NW,320,2.0,3.0,75,0.00,,---,0.00,VWS V14.01,2013-01-03 00:26:00,
2013-01-02 19:31:00,23.9,17.5,30.21,NW,319,2.0,2.0,76,0.00,,---,0.00,VWS V14.01,2013-01-03 00:31:00,
2013-01-02 19:36:00,23.9,17.5,30.21,NW,320,2.0,2.0,76,0.00,,---,0.00,VWS V14.01,2013-01-03 00:36:00,
2013-01-02 19:40:00,23.9,17.5,30.21,NW,324,3.0,3.0,76,0.00,,---,0.00,VWS V14.01,2013-01-03 00:40:00,
2013-01-02 19:45:00,24.0,17.5,30.21,NW,321,1.0,2.0,76,0.00,,---,0.00,VWS V14.01,2013-01-03 00:45:00,
2013-01-02 19:50:00,23.9,17.5,30.21,NW,321,1.0,2.0,76,0.00,,---,0.00,VWS V14.01,2013-01-03 00:50:00,
2013-01-02 19:55:00,23.8,17.4,30.21,NW,304,2.0,2.0,76,0.00,,---,0.00,VWS V14.01,2013-01-03 00:55:00,
2013-01-02 20:00:00,23.7,17.3,30.22,NW,304,1.0,1.0,76,0.00,,---,0.00,VWS V14.01,2013-01-03 01:00:00,
2013-01-02 20:05:00,23.6,17.2,30.22,NW,304,0.0,0.0,76,0.00,,---,0.00,VWS V14.01,2013-01-03 01:05:00,
2013-01-02 20:10:00,23.4,17.0,30.22,NW,304,0.0,0.0,76,0.00,,---,0.00,VWS V14.01,2013-01-03 01:10:00,
2013-01-02 20:15:00,23.3,17.2,30.22,NW,304,0.0,0.0,77,0.00,,---,0.00,VWS V14.01,2013-01-03 01:15:00,
2013-01-02 20:20:00,23.2,17.1,30.22,NW,304,0.0,0.0,77,0.00,,---,0.00,VWS V14.01,2013-01-03 01:20:00,
2013-01-02 20:25:00,23.2,17.1,30.22,NW,304,0.0,0.0,77,0.00,,---,0.00,VWS V14.01,2013-01-03 01:25:00,
2013-01-02 20:30:00,23.2,17.1,30.22,NW,304,1.0,1.0,77,0.00,,---,0.00,VWS V14.01,2013-01-03 01:30:00,
2013-01-02 20:35:00,23.2,17.1,30.22,NW,304,0.0,0.0,77,0.00,,---,0.00,VWS V14.01,2013-01-03 01:35:00,
2013-01-02 20:40:00,23.2,17.4,30.22,NW,304,1.0,2.0,78,0.00,,---,0.00,VWS V14.01,2013-01-03 01:40:00,
2013-01-02 20:45:00,23.2,17.4,30.22,NW,304,0.0,1.0,78,0.00,,---,0.00,VWS V14.01,2013-01-03 01:45:00,
2013-01-02 20:50:00,23.2,17.1,30.22,NW,304,2.0,2.0,77,0.00,,---,0.00,VWS V14.01,2013-01-03 01:50:00,
2013-01-02 20:55:00,23.2,17.4,30.22,NW,304,0.0,1.0,78,0.00,,---,0.00,VWS V14.01,2013-01-03 01:55:00,
2013-01-02 21:00:00,23.3,17.5,30.23,NW,304,1.0,1.0,78,0.00,,---,0.00,VWS V14.01,2013-01-03 02:00:00,
2013-01-02 21:05:00,23.2,17.4,30.23,NW,304,1.0,1.0,78,0.00,,---,0.00,VWS V14.01,2013-01-03 02:05:00,
2013-01-02 21:10:00,23.1,17.3,30.23,NW,304,0.0,0.0,78,0.00,,---,0.00,VWS V14.01,2013-01-03 02:10:00,
2013-01-02 21:15:00,23.1,17.3,30.23,NW,304,1.0,1.0,78,0.00,,---,0.00,VWS V14.01,2013-01-03 02:15:00,
2013-01-02 21:20:00,23.1,17.3,30.23,NW,304,0.0,0.0,78,0.00,,---,0.00,VWS V14.01,2013-01-03 02:20:00,
2013-01-02 21:25:00,23.3,17.2,30.24,NW,309,1.0,2.0,77,0.00,,---,0.00,VWS V14.01,2013-01-03 02:25:00,
2013-01-02 21:31:00,23.5,17.4,30.23,NW,323,0.0,0.0,77,0.00,,---,0.00,VWS V14.01,2013-01-03 02:31:00,
2013-01-02 21:36:00,23.5,17.1,30.24,WNW,284,3.0,3.0,76,0.00,,---,0.00,VWS V14.01,2013-01-03 02:36:00,
2013-01-02 21:40:00,23.6,17.2,30.24,WNW,292,1.0,1.0,76,0.00,,---,0.00,VWS V14.01,2013-01-03 02:40:00,
2013-01-02 21:45:00,23.7,17.3,30.24,WNW,296,2.0,2.0,76,0.00,,---,0.00,VWS V14.01,2013-01-03 02:45:00,
2013-01-02 21:50:00,24.0,17.5,30.24,NW,305,4.0,4.0,76,0.00,,---,0.00,VWS V14.01,2013-01-03 02:50:00,
2013-01-02 21:55:00,24.1,17.6,30.25,NNW,338,1.0,2.0,76,0.00,,---,0.00,VWS V14.01,2013-01-03 02:55:00,
2013-01-02 22:00:00,24.1,17.6,30.24,NNW,342,2.0,2.0,76,0.00,,---,0.00,VWS V14.01,2013-01-03 03:00:00,
2013-01-02 22:05:00,24.0,17.5,30.25,NW,316,2.0,2.0,76,0.00,,---,0.00,VWS V14.01,2013-01-03 03:05:00,
2013-01-02 22:10:00,23.9,17.5,30.25,West,275,5.0,6.0,76,0.00,,---,0.00,VWS V14.01,2013-01-03 03:10:00,
2013-01-02 22:15:00,23.8,17.7,30.25,West,279,1.0,1.0,77,0.00,,---,0.00,VWS V14.01,2013-01-03 03:15:00,
2013-01-02 22:20:00,23.8,17.7,30.25,West,275,1.0,1.0,77,0.00,,---,0.00,VWS V14.01,2013-01-03 03:20:00,
2013-01-02 22:25:00,23.7,17.6,30.25,NW,317,3.0,3.0,77,0.00,,---,0.00,VWS V14.01,2013-01-03 03:25:00,
2013-01-02 22:31:00,23.7,17.6,30.24,NW,319,2.0,4.0,77,0.00,,---,0.00,VWS V14.01,2013-01-03 03:31:00,
2013-01-02 22:36:00,23.6,17.8,30.25,NW,319,2.0,2.0,78,0.00,,---,0.00,VWS V14.01,2013-01-03 03:36:00,
2013-01-02 22:41:00,23.5,17.7,30.25,NW,319,2.0,2.0,78,0.00,,---,0.00,VWS V14.01,2013-01-03 03:41:00,
2013-01-02 22:46:00,23.4,17.6,30.25,NW,318,1.0,3.0,78,0.00,,---,0.00,VWS V14.01,2013-01-03 03:46:00,
2013-01-02 22:51:00,23.3,17.8,30.25,NW,318,3.0,3.0,79,0.00,,---,0.00,VWS V14.01,2013-01-03 03:51:00,
2013-01-02 22:56:00,23.3,17.8,30.24,NW,318,3.0,4.0,79,0.00,,---,0.00,VWS V14.01,2013-01-03 03:56:00,
2013-01-02 23:01:00,23.3,17.8,30.24,NW,320,1.0,1.0,79,0.00,,---,0.00,VWS V14.01,2013-01-03 04:01:00,
2013-01-02 23:06:00,23.1,17.6,30.24,NW,320,1.0,1.0,79,0.00,,---,0.00,VWS V14.01,2013-01-03 04:06:00,
2013-01-02 23:11:00,23.1,17.6,30.24,NW,319,1.0,3.0,79,0.00,,---,0.00,VWS V14.01,2013-01-03 04:11:00,
2013-01-02 23:16:00,23.2,17.7,30.24,North,355,1.0,3.0,79,0.00,,---,0.00,VWS V14.01,2013-01-03 04:16:00,
2013-01-02 23:21:00,23.3,17.8,30.25,North,355,0.0,3.0,79,0.00,,---,0.00,VWS V14.01,2013-01-03 04:21:00,
2013-01-02 23:26:00,23.3,17.8,30.25,North,355,1.0,1.0,79,0.00,,---,0.00,VWS V14.01,2013-01-03 04:26:00,
2013-01-02 23:31:00,23.1,17.6,30.25,North,355,1.0,2.0,79,0.00,,---,0.00,VWS V14.01,2013-01-03 04:31:00,
2013-01-02 23:36:00,23.0,17.5,30.25,North,355,1.0,2.0,79,0.00,,---,0.00,VWS V14.01,2013-01-03 04:36:00,
2013-01-02 23:41:00,22.9,17.7,30.25,North,355,1.0,2.0,80,0.00,,---,0.00,VWS V14.01,2013-01-03 04:41:00,
2013-01-02 23:46:00,22.7,17.5,30.25,NW,306,1.0,2.0,80,0.00,,---,0.00,VWS V14.01,2013-01-03 04:46:00,
2013-01-02 23:51:00,22.6,17.4,30.25,NW,306,0.0,0.0,80,0.00,,---,0.00,VWS V14.01,2013-01-03 04:51:00,
2013-01-02 23:56:00,22.5,17.3,30.25,NW,306,0.0,2.0,80,0.00,,---,0.00,VWS V14.01,2013-01-03 04:56:00,